Charter Quote
Worldwide +44-20-3874-8091 Call
Select Language Lang
SAFETY RELIABILITY EXPERIENCE

Cameri Airport (LIMN) - Jet Charter Services

AIRPORT INFORMATION
ICAOLIMN
IATALTT
LOCATIONCameri, Italy
FACILITY TYPEAIRPORT
Runway Length (ft) Width (ft) Surface Type Elevation (ft)
35/17 9818 94 ASP 585.60656

At Paramount Business Jets you can hire chartered private jets to and from Cameri Airport with as little as 4 hours of notice. All flights booked via Paramount Business Jets are operated by certified direct air carriers that meet and exceed the FAA part 135 and 121 protocol or a foreign equivalent safety authority. Furthermore, Paramount Business Jets subscribes to ARGUS for their third party safety checks of operators, aircraft, and crews prior each and every flight to and from Cameri Airport and worldwide.

  • Quote a trip using Cameri Airport or call us 24/7 - 365 days a year at +44-20-3874-8091.
Questions? Call +44-20-3874-8091

METAR Weather Data at Cameri Airport, LIMN, LTT

STATIONLIMN
OBSERVEDWed Jan 23, 17:55 UTC
NOWWed Jan 23, 22:42 UTC
AGE4:47 hr ago
WINDNNW at 3 mph
VISIBILITY2.4 miles
CONDITIONSmist
CLOUDSpartly cloudy
TEMP32°F (0°C)
DEWPT30°F (-1°C)
HUMIDITY93%
BAROMETER995 hPa (29.38 in Hg)
METARLIMN 231755Z 34003KT 1500 BR FEW020 00/M01 Q0995 RMK OVC BKN070 VIS MIN 1500 AMB

Call us on +44-20-3874-8091 (24 Hours) to Hire a Private Jet or Get a Quick Quote.

Find Airports Near any Location

Processing
...